Time;durP1;ratioP1;P1;durP2;ratioP2;P2;SDS_P1;SDS_P2;PMS_P1;PMS_P2;Temp;Humidity;BMP_temperature;BMP_pressure;BME280_temperature;BME280_humidity;BME280_pressure;Samples;Min_cycle;Max_cycle;Signal;HPM_P1;HPM_P2
2022/08/28 00:01:06;;;;;;;8.75;6.00;;;;;;;20.44;59.93;94728.56;5083684;28;20204;-69
2022/08/28 00:03:34;;;;;;;7.13;5.90;;;;;;;20.40;59.92;94739.03;5101441;28;20230;-69
2022/08/28 00:06:01;;;;;;;8.65;5.80;;;;;;;20.36;59.78;94736.31;5100460;28;20214;-69
2022/08/28 00:08:29;;;;;;;6.90;6.10;;;;;;;20.34;60.39;94735.16;5100599;28;20616;-69
2022/08/28 00:10:57;;;;;;;12.10;6.38;;;;;;;20.35;59.93;94733.94;5096277;28;20220;-69
2022/08/28 00:13:26;;;;;;;7.47;6.10;;;;;;;20.35;60.11;94736.75;5098441;28;20189;-69
2022/08/28 00:15:59;;;;;;;8.65;5.90;;;;;;;20.33;60.25;94731.53;5097887;28;20192;-69
2022/08/28 00:18:26;;;;;;;7.10;6.18;;;;;;;20.31;60.39;94727.59;5096808;28;20227;-69
2022/08/28 00:20:53;;;;;;;8.43;5.57;;;;;;;20.29;60.64;94725.22;5097664;28;20199;-69
2022/08/28 00:23:21;;;;;;;10.93;5.95;;;;;;;20.30;60.36;94723.19;5098013;28;20184;-69
2022/08/28 00:25:48;;;;;;;9.07;5.90;;;;;;;20.30;60.66;94724.03;5097920;28;20192;-69
2022/08/28 00:28:17;;;;;;;9.05;6.30;;;;;;;20.28;61.07;94722.84;5097158;28;20212;-69
2022/08/28 00:30:47;;;;;;;9.40;5.65;;;;;;;20.25;60.53;94730.09;5097955;28;20184;-69
2022/08/28 00:33:17;;;;;;;6.35;5.60;;;;;;;20.23;61.05;94732.53;5096952;28;20532;-69
2022/08/28 00:35:46;;;;;;;7.15;5.50;;;;;;;20.20;60.60;94722.97;5096977;28;20207;-69
2022/08/28 00:38:13;;;;;;;9.13;6.10;;;;;;;20.15;60.84;94731.03;5097650;28;20666;-69
2022/08/28 00:40:43;;;;;;;7.28;5.50;;;;;;;20.10;60.93;94740.72;5096893;28;20208;-69
2022/08/28 00:43:13;;;;;;;8.35;5.63;;;;;;;20.08;61.13;94733.94;5096877;28;20189;-69
2022/08/28 00:45:42;;;;;;;7.10;5.50;;;;;;;20.06;61.24;94739.19;5096741;28;20207;-69
2022/08/28 00:48:09;;;;;;;9.65;6.00;;;;;;;20.04;61.40;94745.19;5079043;28;20212;-69
2022/08/28 00:53:21;;;;;;;7.32;5.88;;;;;;;20.00;61.71;94738.06;5095272;28;20197;-69
2022/08/28 00:55:50;;;;;;;9.45;6.07;;;;;;;19.99;61.70;94734.47;5097360;28;20199;-69
2022/08/28 00:58:18;;;;;;;8.25;6.25;;;;;;;19.96;61.77;94747.28;5097298;28;20234;-69
2022/08/28 01:00:47;;;;;;;9.07;6.07;;;;;;;19.94;62.01;94744.16;5096546;28;20200;-69
2022/08/28 01:03:14;;;;;;;7.63;6.00;;;;;;;19.93;61.67;94738.94;5096454;28;20196;-69
2022/08/28 01:05:45;;;;;;;7.72;5.85;;;;;;;19.94;61.91;94740.56;5096356;28;20193;-70
2022/08/28 01:08:12;;;;;;;10.50;6.35;;;;;;;19.92;62.12;94737.38;5096109;28;20230;-69
2022/08/28 01:10:41;;;;;;;11.40;6.25;;;;;;;19.89;61.91;94743.81;5096355;28;20545;-69
2022/08/28 01:13:08;;;;;;;8.25;5.97;;;;;;;19.86;62.09;94741.84;5096959;28;20181;-69
2022/08/28 01:15:36;;;;;;;8.65;6.05;;;;;;;19.84;62.36;94744.28;5096983;28;20184;-69
2022/08/28 01:18:07;;;;;;;7.93;5.90;;;;;;;19.84;62.62;94741.50;5095539;28;20224;-69
2022/08/28 01:20:38;;;;;;;6.65;5.85;;;;;;;19.83;62.79;94748.31;5095584;28;20207;-69
2022/08/28 01:23:10;;;;;;;7.18;5.47;;;;;;;19.85;62.79;94749.44;5095549;28;20184;-69
2022/08/28 01:25:41;;;;;;;8.05;5.70;;;;;;;19.84;62.65;94747.88;5095847;28;20207;-69
2022/08/28 01:28:11;;;;;;;9.52;6.13;;;;;;;19.80;62.64;94738.75;5096979;28;20204;-69
2022/08/28 01:30:40;;;;;;;7.63;6.03;;;;;;;19.74;62.49;94740.41;5096848;28;20187;-69
2022/08/28 01:33:07;;;;;;;7.28;5.60;;;;;;;19.69;62.28;94749.28;5096623;28;20172;-69
2022/08/28 01:35:36;;;;;;;7.88;6.03;;;;;;;19.65;62.37;94749.34;5095999;28;20207;-69
2022/08/28 01:38:04;;;;;;;7.18;5.75;;;;;;;19.64;62.59;94746.94;5095739;28;20212;-69
2022/08/28 01:40:44;;;;;;;11.30;6.70;;;;;;;19.61;62.54;94748.56;5095596;28;20299;-69
2022/08/28 01:43:13;;;;;;;9.07;6.10;;;;;;;19.58;63.09;94741.00;5096079;28;20258;-69
2022/08/28 01:45:40;;;;;;;8.20;6.00;;;;;;;19.58;62.99;94738.22;5095213;28;20211;-69
2022/08/28 01:48:08;;;;;;;8.85;6.20;;;;;;;19.59;63.39;94745.38;5095159;28;20192;-69
2022/08/28 01:50:37;;;;;;;7.55;5.65;;;;;;;19.63;63.16;94745.38;5095579;28;20196;-69
2022/08/28 01:53:06;;;;;;;8.48;5.68;;;;;;;19.62;63.55;94752.97;5096340;28;20180;-69
2022/08/28 01:55:34;;;;;;;11.90;6.15;;;;;;;19.59;63.20;94744.59;5095925;28;20530;-69
2022/08/28 01:58:04;;;;;;;9.90;6.28;;;;;;;19.54;62.84;94747.84;5095302;28;20528;-69
2022/08/28 02:00:31;;;;;;;7.40;6.20;;;;;;;19.45;62.90;94743.53;5095358;28;20208;-69
2022/08/28 02:02:59;;;;;;;9.07;6.35;;;;;;;19.43;62.55;94745.19;5094957;28;20204;-69
2022/08/28 02:05:31;;;;;;;8.25;5.68;;;;;;;19.40;63.06;94748.81;5095182;28;20235;-69
2022/08/28 02:07:59;;;;;;;7.95;5.55;;;;;;;19.42;63.05;94749.97;5095042;28;20196;-69
2022/08/28 02:10:28;;;;;;;10.23;5.88;;;;;;;19.44;62.84;94757.97;5094748;28;20200;-69
2022/08/28 02:12:56;;;;;;;7.57;6.22;;;;;;;19.40;63.41;94746.03;5095977;28;20184;-69
2022/08/28 02:15:27;;;;;;;7.72;6.13;;;;;;;19.41;63.20;94748.38;5095897;28;20193;-69
2022/08/28 02:17:58;;;;;;;6.55;5.90;;;;;;;19.42;63.42;94743.59;5094959;28;20224;-69
2022/08/28 02:20:27;;;;;;;7.25;5.82;;;;;;;19.39;63.15;94748.03;5095087;28;20196;-69
2022/08/28 02:22:57;;;;;;;8.82;6.25;;;;;;;19.36;63.37;94743.28;5095871;28;20195;-69
2022/08/28 02:25:24;;;;;;;7.15;5.60;;;;;;;19.32;63.64;94742.53;5095886;28;20187;-69
2022/08/28 02:27:51;;;;;;;9.13;6.40;;;;;;;19.30;63.68;94739.34;5095806;28;20218;-69
2022/08/28 02:30:18;;;;;;;8.18;7.38;;;;;;;19.31;63.57;94742.91;5094660;28;20193;-69
2022/08/28 02:32:47;;;;;;;8.25;6.47;;;;;;;19.33;63.90;94748.91;5094917;28;20207;-69
2022/08/28 02:35:17;;;;;;;8.27;5.85;;;;;;;19.29;63.79;94746.16;5094684;28;20201;-69
2022/08/28 02:37:44;;;;;;;9.85;6.45;;;;;;;19.24;63.38;94754.97;5095155;28;20640;-69
2022/08/28 02:40:14;;;;;;;8.27;5.93;;;;;;;19.21;63.66;94758.63;5095603;28;20250;-69
2022/08/28 02:42:41;;;;;;;7.55;5.63;;;;;;;19.17;64.12;94764.25;5095751;28;20249;-69
2022/08/28 02:45:10;;;;;;;6.47;5.85;;;;;;;19.17;64.19;94760.66;5094898;28;20219;-69
2022/08/28 02:47:37;;;;;;;9.35;6.32;;;;;;;19.14;64.08;94755.91;5094689;28;20199;-69
2022/08/28 02:50:07;;;;;;;10.35;6.07;;;;;;;19.16;64.00;94759.06;5095316;28;20185;-69
2022/08/28 02:52:35;;;;;;;7.75;6.30;;;;;;;19.12;63.72;94763.91;5095097;28;20238;-69
2022/08/28 02:55:04;;;;;;;7.28;5.90;;;;;;;19.08;63.73;94763.94;5093507;28;20200;-69
2022/08/28 02:57:31;;;;;;;10.05;6.53;;;;;;;19.06;63.90;94759.97;5095243;28;20204;-69
2022/08/28 02:59:58;;;;;;;10.40;6.50;;;;;;;19.05;64.06;94769.56;5094936;28;20283;-69
2022/08/28 03:02:25;;;;;;;8.68;6.75;;;;;;;19.03;64.19;94764.41;5094524;28;20250;-69
2022/08/28 03:04:53;;;;;;;7.65;5.65;;;;;;;19.00;64.12;94768.03;5094480;28;20196;-69
2022/08/28 03:07:24;;;;;;;8.88;6.05;;;;;;;18.97;64.35;94764.03;5095249;28;20181;-69
2022/08/28 03:09:50;;;;;;;7.90;6.10;;;;;;;18.96;64.38;94770.06;5094871;28;20189;-69
2022/08/28 03:12:22;;;;;;;7.10;5.93;;;;;;;18.96;64.30;94764.47;5094459;28;20536;-69
2022/08/28 03:14:50;;;;;;;10.70;6.38;;;;;;;18.95;64.26;94768.47;5095357;28;20196;-69
2022/08/28 03:17:18;;;;;;;7.50;6.03;;;;;;;18.93;64.51;94773.69;5094727;28;20206;-69
2022/08/28 03:19:45;;;;;;;9.73;5.90;;;;;;;18.91;64.26;94768.50;5094258;28;20205;-69
2022/08/28 03:22:12;;;;;;;10.05;6.20;;;;;;;18.87;64.51;94762.16;5094181;28;20196;-69
2022/08/28 03:24:40;;;;;;;10.20;6.43;;;;;;;18.86;64.40;94768.16;5094240;28;20191;-69
2022/08/28 03:27:07;;;;;;;8.43;5.75;;;;;;;18.84;64.45;94765.75;5095079;28;20226;-69
2022/08/28 03:29:34;;;;;;;7.63;6.00;;;;;;;18.84;64.67;94764.97;5094035;28;20230;-69
2022/08/28 03:32:02;;;;;;;10.68;6.47;;;;;;;18.82;64.61;94765.41;5093941;28;20219;-70
2022/08/28 03:34:29;;;;;;;9.57;5.85;;;;;;;18.82;64.76;94765.41;5094697;28;20203;-69
2022/08/28 03:36:56;;;;;;;9.80;5.75;;;;;;;18.82;64.57;94768.19;5094676;28;20208;-69
2022/08/28 03:39:22;;;;;;;7.63;5.70;;;;;;;18.79;64.60;94771.81;5093719;28;20235;-70
2022/08/28 03:41:52;;;;;;;6.72;5.68;;;;;;;18.75;64.93;94763.47;5094330;28;20199;-69
2022/08/28 03:44:20;;;;;;;10.52;6.72;;;;;;;18.73;64.77;94773.44;5094115;28;20226;-69
2022/08/28 03:46:47;;;;;;;8.40;6.60;;;;;;;18.69;64.91;94775.47;5097690;28;20196;-69
2022/08/28 03:49:16;;;;;;;8.10;6.22;;;;;;;18.67;65.09;94780.69;5098460;28;20180;-69
2022/08/28 03:51:43;;;;;;;9.15;6.45;;;;;;;18.64;64.99;94776.69;5098688;28;20240;-69
2022/08/28 03:54:10;;;;;;;9.20;6.05;;;;;;;18.66;65.20;94779.84;5097638;28;20224;-69
2022/08/28 03:56:37;;;;;;;10.48;6.60;;;;;;;18.66;64.89;94791.03;5097760;28;20203;-69
2022/08/28 03:59:07;;;;;;;8.18;6.20;;;;;;;18.65;65.17;94794.25;5098694;28;20550;-69
2022/08/28 04:01:36;;;;;;;9.45;7.13;;;;;;;18.62;65.14;94804.25;5097732;28;20204;-69
2022/08/28 04:04:03;;;;;;;7.85;6.40;;;;;;;18.59;65.13;94793.91;5098096;28;20196;-69
2022/08/28 04:06:30;;;;;;;8.98;6.00;;;;;;;18.58;65.03;94803.47;5097672;28;20199;-69
2022/08/28 04:08:58;;;;;;;7.68;6.25;;;;;;;18.56;65.15;94803.13;5097198;28;20205;-69
2022/08/28 04:11:24;;;;;;;7.55;6.53;;;;;;;18.55;65.07;94806.28;5098045;28;20219;-69
2022/08/28 04:13:51;;;;;;;8.43;6.57;;;;;;;18.57;65.20;94812.28;5097250;28;20200;-69
2022/08/28 04:16:21;;;;;;;7.63;6.15;;;;;;;18.53;65.44;94810.31;5097034;28;20200;-69
2022/08/28 04:18:50;;;;;;;7.82;6.82;;;;;;;18.54;65.56;94811.09;5097655;28;20204;-69
2022/08/28 04:21:20;;;;;;;10.95;6.85;;;;;;;18.55;65.48;94814.69;5097540;28;20194;-69
2022/08/28 04:23:47;;;;;;;9.68;6.97;;;;;;;18.54;65.72;94822.25;5097082;28;20207;-69
2022/08/28 04:26:18;;;;;;;10.43;6.90;;;;;;;18.54;65.55;94819.47;5097129;28;20195;-69
2022/08/28 04:28:46;;;;;;;8.82;6.43;;;;;;;18.57;65.64;94815.06;5096966;28;20685;-69
2022/08/28 04:31:18;;;;;;;8.55;7.28;;;;;;;18.59;65.88;94824.63;5097986;28;20193;-69
2022/08/28 04:33:46;;;;;;;13.02;6.85;;;;;;;18.61;65.94;94821.41;5096692;28;20200;-69
2022/08/28 04:36:15;;;;;;;9.75;6.70;;;;;;;18.61;65.79;94827.00;5097799;28;20264;-69
2022/08/28 04:38:43;;;;;;;10.43;7.10;;;;;;;18.61;65.92;94830.59;5097291;28;20242;-69
2022/08/28 04:41:11;;;;;;;7.20;6.50;;;;;;;18.62;66.13;94826.59;5097006;28;20204;-69
2022/08/28 04:43:39;;;;;;;9.75;7.43;;;;;;;18.64;66.24;94834.56;5097539;28;20185;-69
2022/08/28 04:46:08;;;;;;;10.25;7.60;;;;;;;18.65;65.97;94830.56;5097174;28;20199;-69
2022/08/28 04:48:35;;;;;;;11.07;7.30;;;;;;;18.65;66.04;94838.94;5097645;28;20196;-69
2022/08/28 04:51:04;;;;;;;9.75;7.03;;;;;;;18.68;66.45;94840.91;5095955;28;20236;-69
2022/08/28 04:53:31;;;;;;;8.57;7.18;;;;;;;18.72;66.44;94845.28;5097559;28;20189;-69
2022/08/28 04:55:59;;;;;;;7.95;7.10;;;;;;;18.76;66.62;94839.69;5097049;28;20196;-69
2022/08/28 04:58:26;;;;;;;8.35;7.32;;;;;;;18.80;66.57;94845.25;5097279;28;20548;-69
2022/08/28 05:00:56;;;;;;;8.38;7.50;;;;;;;18.82;66.31;94840.84;5096805;28;20208;-69
2022/08/28 05:03:24;;;;;;;11.30;7.75;;;;;;;18.85;66.60;94840.03;5096169;28;20223;-69
2022/08/28 05:05:55;;;;;;;11.02;6.95;;;;;;;18.89;67.17;94842.78;5097111;28;20190;-69
2022/08/28 05:08:26;;;;;;;10.85;7.80;;;;;;;18.89;66.00;94840.00;5096208;28;20200;-69
2022/08/28 05:10:54;;;;;;;11.35;7.50;;;;;;;18.91;65.84;94845.94;5096306;28;20207;-69
2022/08/28 05:13:22;;;;;;;9.00;7.25;;;;;;;18.96;65.67;94853.91;5096088;28;20221;-69
2022/08/28 05:15:51;;;;;;;9.90;7.00;;;;;;;18.97;65.19;94850.69;5097000;28;20203;-69
2022/08/28 05:18:22;;;;;;;7.88;6.70;;;;;;;18.99;65.55;94853.06;5096918;28;20192;-69
2022/08/28 05:20:50;;;;;;;9.02;6.80;;;;;;;19.00;65.29;94855.44;5096912;28;20209;-69
2022/08/28 05:23:18;;;;;;;9.40;5.78;;;;;;;19.03;64.45;94851.03;5096808;28;20186;-69
2022/08/28 05:25:47;;;;;;;10.20;6.28;;;;;;;19.04;63.71;94852.63;5095975;28;20208;-69
2022/08/28 05:28:16;;;;;;;7.18;5.55;;;;;;;19.07;63.54;94851.81;5096791;28;20188;-69
2022/08/28 05:30:46;;;;;;;7.18;5.65;;;;;;;19.09;63.60;94859.75;5096199;28;20207;-69
2022/08/28 05:33:15;;;;;;;7.65;6.20;;;;;;;19.12;63.66;94856.16;5096144;28;20224;-69
2022/08/28 05:35:46;;;;;;;9.93;6.80;;;;;;;19.16;64.22;94852.09;5096742;28;20181;-69
2022/08/28 05:38:15;;;;;;;7.88;6.55;;;;;;;19.19;64.60;94861.69;5095144;28;20203;-69
2022/08/28 05:40:44;;;;;;;8.13;6.55;;;;;;;19.21;64.83;94857.25;5096655;28;20199;-69
2022/08/28 05:43:14;;;;;;;10.10;6.50;;;;;;;19.24;64.68;94870.41;5096543;28;20185;-69
2022/08/28 05:45:41;;;;;;;7.28;6.40;;;;;;;19.29;64.06;94866.38;5095707;28;20199;-69
2022/08/28 05:48:08;;;;;;;7.40;6.43;;;;;;;19.33;64.17;94860.75;5096000;28;20257;-69
2022/08/28 05:50:38;;;;;;;9.13;6.60;;;;;;;19.35;64.42;94866.69;5096343;28;20184;-69
2022/08/28 05:53:05;;;;;;;11.00;6.78;;;;;;;19.36;64.26;94863.50;5077989;28;20270;-69
2022/08/28 05:55:32;;;;;;;8.35;6.70;;;;;;;19.40;63.77;94869.06;5095164;28;20203;-69
2022/08/28 05:58:27;;;;;;;10.90;7.10;;;;;;;19.43;63.70;94868.25;5096165;28;20196;-69
2022/08/28 06:00:51;;;;;;;9.63;6.65;;;;;;;19.50;63.27;94865.38;5095933;28;20196;-69
2022/08/28 06:03:19;;;;;;;6.90;6.22;;;;;;;19.55;62.97;94867.72;5096250;28;20196;-69
2022/08/28 06:05:48;;;;;;;9.07;6.65;;;;;;;19.59;62.95;94870.47;5095007;28;20207;-69
2022/08/28 06:08:15;;;;;;;10.10;6.95;;;;;;;19.62;62.72;94866.84;5094460;28;20242;-69
2022/08/28 06:10:44;;;;;;;8.57;6.60;;;;;;;19.65;62.36;94868.84;5095047;28;20209;-69
2022/08/28 06:13:11;;;;;;;11.13;7.90;;;;;;;19.69;62.32;94858.41;5094945;28;20196;-69
2022/08/28 06:15:41;;;;;;;10.23;6.80;;;;;;;19.74;62.27;94865.53;5094901;28;20192;-69
2022/08/28 06:18:11;;;;;;;7.88;7.13;;;;;;;19.77;62.21;94868.28;5094951;28;20204;-69
2022/08/28 06:20:40;;;;;;;8.75;7.50;;;;;;;19.80;62.42;94869.47;5094999;28;20589;-69
2022/08/28 06:23:07;;;;;;;9.57;7.07;;;;;;;19.82;62.36;94870.63;5094701;28;20246;-69
2022/08/28 06:25:40;;;;;;;8.50;7.60;;;;;;;19.87;62.17;94872.19;5095899;28;20269;-69
2022/08/28 06:28:07;;;;;;;12.88;7.55;;;;;;;19.90;62.10;94866.56;5094827;28;20188;-69
2022/08/28 06:30:36;;;;;;;9.10;7.40;;;;;;;19.95;62.04;94873.69;5095359;28;20200;-69
2022/08/28 06:33:05;;;;;;;10.77;7.55;;;;;;;20.00;62.13;94873.22;5094485;28;20619;-69
2022/08/28 06:35:35;;;;;;;8.93;6.85;;;;;;;20.04;62.21;94865.56;5094584;28;20204;-69
2022/08/28 06:46:53;;;;;;;10.43;7.18;;;;;;;20.27;61.07;94866.88;5175398;27;20636;-69
2022/08/28 06:49:21;;;;;;;9.15;7.15;;;;;;;20.32;61.37;94872.00;5191673;27;20186;-69
2022/08/28 06:51:48;;;;;;;8.95;7.22;;;;;;;20.35;60.98;94871.16;5191826;27;20182;-69
2022/08/28 06:54:16;;;;;;;9.32;7.68;;;;;;;20.39;61.14;94875.50;5174804;27;20194;-69
2022/08/28 06:56:43;;;;;;;11.57;7.35;;;;;;;20.44;60.88;94879.84;5174152;27;20265;-69
2022/08/28 06:59:10;;;;;;;9.98;7.55;;;;;;;20.47;60.58;94875.41;5191659;27;20190;-69
2022/08/28 07:01:38;;;;;;;8.07;7.30;;;;;;;20.51;60.78;94878.97;5173825;27;20229;-69
2022/08/28 07:04:08;;;;;;;8.82;7.50;;;;;;;20.54;60.21;94873.31;5173902;27;20208;-69
2022/08/28 07:06:37;;;;;;;10.65;7.25;;;;;;;20.57;60.07;94874.50;5174452;27;20202;-69
2022/08/28 07:09:06;;;;;;;11.40;7.75;;;;;;;20.59;59.65;94872.06;5191664;27;20190;-69
2022/08/28 07:11:34;;;;;;;11.10;9.20;;;;;;;20.62;59.09;94868.41;5174614;27;20182;-69
2022/08/28 07:14:02;;;;;;;9.93;8.68;;;;;;;20.65;58.87;94868.34;5173728;27;20198;-69
2022/08/28 07:16:30;;;;;;;11.02;8.95;;;;;;;20.69;59.06;94868.31;5191128;27;20186;-69
2022/08/28 07:18:58;;;;;;;13.23;10.82;;;;;;;20.75;59.22;94874.22;5174795;27;20190;-69
2022/08/28 07:21:27;;;;;;;12.23;10.55;;;;;;;20.80;59.34;94873.75;5173765;27;20193;-69
2022/08/28 07:23:55;;;;;;;11.70;9.35;;;;;;;20.84;58.66;94868.88;5174418;27;20550;-69
2022/08/28 07:26:24;;;;;;;8.85;7.95;;;;;;;20.87;58.33;94868.81;5173277;27;20212;-69
2022/08/28 07:28:53;;;;;;;9.82;8.20;;;;;;;20.93;58.80;94869.13;5173700;27;20229;-70
2022/08/28 07:31:22;;;;;;;9.80;8.00;;;;;;;20.99;58.10;94864.66;5173772;27;20249;-69
2022/08/28 07:33:49;;;;;;;9.07;8.00;;;;;;;21.08;57.44;94864.09;5190830;27;20204;-69
2022/08/28 07:36:18;;;;;;;11.73;7.60;;;;;;;21.13;57.41;94858.00;5173999;27;20193;-71
2022/08/28 07:38:47;;;;;;;10.63;8.25;;;;;;;21.15;57.35;94858.38;5173236;27;20202;-69
2022/08/28 07:41:15;;;;;;;10.32;7.97;;;;;;;21.19;57.36;94858.31;5174039;27;20277;-69
2022/08/28 07:46:28;;;;;;;12.27;8.35;;;;;;;21.29;56.87;94858.13;5173733;27;20225;-69
2022/08/28 07:48:56;;;;;;;7.60;6.88;;;;;;;21.34;58.28;94848.44;5174212;27;20186;-69
2022/08/28 07:51:23;;;;;;;9.90;7.90;;;;;;;21.45;57.67;94849.03;5173888;27;20205;-69
2022/08/28 07:53:52;;;;;;;12.32;7.80;;;;;;;21.50;57.16;94848.56;5174013;27;20182;-69
2022/08/28 07:56:19;;;;;;;9.15;8.10;;;;;;;21.59;58.65;94848.78;5170081;27;20644;-69
2022/08/28 08:06:41;;;;;;;9.30;8.27;;;;;;;22.02;56.66;94850.75;5092871;27;20570;-69
2022/08/28 08:09:13;;;;;;;10.70;7.68;;;;;;;22.19;56.37;94848.03;5092270;28;20208;-69
2022/08/28 08:11:40;;;;;;;14.05;7.40;;;;;;;22.23;55.59;94854.38;5091914;28;20203;-69
2022/08/28 08:14:08;;;;;;;14.15;7.63;;;;;;;22.30;55.91;94851.41;5125911;28;20212;-69
2022/08/28 08:16:37;;;;;;;10.32;6.75;;;;;;;22.38;55.56;94846.44;5092414;28;20541;-69
2022/08/28 08:19:04;;;;;;;8.57;6.68;;;;;;;22.53;54.91;94850.50;5092945;28;20188;-69
2022/08/28 08:21:31;;;;;;;10.70;6.85;;;;;;;22.63;56.38;94848.69;5091844;28;20208;-69
2022/08/28 08:23:59;;;;;;;8.40;7.38;;;;;;;22.73;54.60;94842.00;5091734;28;20203;-69
2022/08/28 08:26:27;;;;;;;10.30;6.80;;;;;;;22.77;55.03;94842.72;5092623;28;20526;-69
2022/08/28 08:28:54;;;;;;;9.18;6.93;;;;;;;22.89;54.44;94849.69;5091870;28;20196;-69
2022/08/28 08:31:25;;;;;;;12.98;7.43;;;;;;;23.01;53.20;94840.56;5108097;28;20215;-69
2022/08/28 08:33:53;;;;;;;9.70;7.40;;;;;;;23.18;53.90;94838.53;5125457;28;20249;-70
2022/08/28 08:36:22;;;;;;;12.23;8.02;;;;;;;23.35;54.15;94842.13;5091219;28;20246;-69
2022/08/28 08:38:49;;;;;;;12.30;7.93;;;;;;;23.51;54.71;94836.47;5091952;28;20208;-69
2022/08/28 08:41:22;;;;;;;14.40;7.05;;;;;;;23.67;52.22;94835.66;5091432;28;20211;-70
2022/08/28 08:43:58;;;;;;;9.07;6.88;;;;;;;23.70;53.43;94835.56;5092194;28;20180;-71
2022/08/28 08:46:31;;;;;;;8.60;7.15;;;;;;;23.74;52.55;94827.81;5090926;28;20216;-70
2022/08/28 08:49:01;;;;;;;12.90;7.20;;;;;;;23.83;52.94;94835.63;5091885;28;20201;-69
2022/08/28 08:51:40;;;;;;;9.75;7.03;;;;;;;24.02;54.30;94837.50;5091303;28;20241;-69
2022/08/28 08:54:11;;;;;;;10.77;7.03;;;;;;;24.14;54.46;94841.56;5090661;28;20250;-69
2022/08/28 08:56:41;;;;;;;13.68;7.32;;;;;;;24.28;52.70;94843.19;5091650;28;20181;-69
2022/08/28 08:59:10;;;;;;;10.25;7.18;;;;;;;24.40;52.34;94838.84;5090287;28;20208;-69
2022/08/28 09:01:43;;;;;;;9.23;7.05;;;;;;;24.39;50.73;94838.06;5091009;28;20203;-69
2022/08/28 09:04:21;;;;;;;7.82;6.97;;;;;;;24.37;50.13;94837.69;5090496;28;20188;-69
2022/08/28 09:06:50;;;;;;;9.00;7.30;;;;;;;24.41;52.72;94834.81;5091093;28;20257;-70
2022/08/28 09:09:19;;;;;;;8.85;7.47;;;;;;;24.53;53.18;94841.69;5091523;28;20181;-69
2022/08/28 09:11:54;;;;;;;8.07;7.30;;;;;;;24.60;52.46;94835.84;5090267;28;20192;-69
2022/08/28 09:14:28;;;;;;;9.18;7.40;;;;;;;24.72;52.41;94830.19;5091220;28;20666;-70
2022/08/28 09:16:56;;;;;;;8.98;7.55;;;;;;;24.81;52.87;94837.19;5083899;28;20185;-69
2022/08/28 09:19:23;;;;;;;9.30;7.38;;;;;;;24.92;50.64;94829.97;5077883;28;20181;-70
2022/08/28 09:21:51;;;;;;;11.80;7.45;;;;;;;24.97;51.29;94828.59;5077961;28;20189;-70
2022/08/28 09:24:21;;;;;;;8.57;6.75;;;;;;;25.07;51.44;94827.47;5077630;28;20185;-70
2022/08/28 09:26:55;;;;;;;9.40;7.40;;;;;;;25.21;51.80;94829.84;5077488;28;20636;-69
2022/08/28 09:29:27;;;;;;;9.10;7.60;;;;;;;25.48;50.92;94831.38;5076869;28;20207;-70
2022/08/28 09:31:55;;;;;;;10.43;7.70;;;;;;;25.66;49.80;94814.59;5076781;28;20228;-70
2022/08/28 09:34:31;;;;;;;10.48;8.13;;;;;;;25.78;50.14;94818.63;5076842;28;20200;-70
2022/08/28 09:36:59;;;;;;;15.05;12.85;;;;;;;25.86;49.14;94817.16;5076913;28;20211;-69
2022/08/28 09:39:28;;;;;;;9.98;8.55;;;;;;;25.90;48.44;94814.19;5077896;28;20192;-69
2022/08/28 09:44:56;;;;;;;14.45;12.43;;;;;;;25.97;49.20;94810.31;5076987;28;20217;-69
2022/08/28 09:47:47;;;;;;;12.48;9.98;;;;;;;26.06;49.04;94804.72;5110300;28;20204;-70
2022/08/28 09:50:27;;;;;;;13.10;9.55;;;;;;;26.22;46.58;94796.03;5077176;28;20185;-69
2022/08/28 09:52:57;;;;;;;12.10;9.43;;;;;;;26.20;47.23;94800.56;5077505;28;20201;-69
2022/08/28 09:55:30;;;;;;;9.73;8.38;;;;;;;26.21;47.26;94796.50;5076521;28;20201;-69
2022/08/28 09:57:59;;;;;;;12.05;8.77;;;;;;;26.24;49.35;94798.41;5075989;28;20228;-69
2022/08/28 10:00:28;;;;;;;9.70;8.70;;;;;;;26.32;48.94;94789.19;5076293;28;20590;-69
2022/08/28 10:02:59;;;;;;;13.75;10.45;;;;;;;26.61;45.23;94786.06;5076412;28;20212;-69
2022/08/28 10:05:35;;;;;;;9.38;8.27;;;;;;;26.75;45.86;94786.75;5075764;28;20237;-70
2022/08/28 10:08:08;;;;;;;10.40;8.13;;;;;;;26.68;45.88;94781.38;5076780;28;20181;-69
2022/08/28 10:10:39;;;;;;;9.80;8.77;;;;;;;26.67;46.01;94782.63;5076615;28;20577;-69
2022/08/28 10:13:13;;;;;;;10.13;7.57;;;;;;;26.67;44.49;94780.59;5076898;28;20185;-69
2022/08/28 10:15:53;;;;;;;10.45;8.10;;;;;;;26.69;44.53;94783.75;5076887;28;20526;-69
2022/08/28 10:18:32;;;;;;;10.65;7.60;;;;;;;26.79;44.58;94785.34;5076943;28;20196;-69
2022/08/28 10:21:04;;;;;;;8.48;7.20;;;;;;;26.84;46.33;94773.44;5076532;28;20177;-69
2022/08/28 10:23:38;;;;;;;10.23;7.72;;;;;;;27.00;43.90;94777.25;5075687;28;20228;-69
2022/08/28 10:26:20;;;;;;;11.05;8.15;;;;;;;27.12;44.72;94770.69;5076746;28;20216;-69
2022/08/28 10:28:55;;;;;;;10.98;8.40;;;;;;;27.16;45.18;94773.38;5108682;28;20609;-69
2022/08/28 10:31:30;;;;;;;8.85;7.22;;;;;;;27.25;42.32;94764.91;5075919;28;20578;-69
2022/08/28 10:34:23;;;;;;;8.75;7.43;;;;;;;27.32;42.88;94771.06;5076564;28;20185;-69
2022/08/28 10:36:56;;;;;;;10.38;7.75;;;;;;;27.33;42.04;94766.16;5076894;28;20199;-69
2022/08/28 10:39:32;;;;;;;12.13;7.35;;;;;;;27.36;42.21;94766.03;5109494;28;20201;-69
2022/08/28 10:42:01;;;;;;;10.73;7.70;;;;;;;27.39;43.73;94766.34;5109398;28;20200;-69
2022/08/28 10:44:39;;;;;;;8.32;7.53;;;;;;;27.39;42.41;94761.47;5076363;28;20217;-69
2022/08/28 10:47:06;;;;;;;10.98;7.95;;;;;;;27.59;40.99;94761.78;5075948;28;20281;-70
2022/08/28 10:49:35;;;;;;;10.82;9.73;;;;;;;27.87;40.76;94761.81;5075278;28;20216;-70
2022/08/28 10:52:06;;;;;;;11.18;7.78;;;;;;;27.95;41.06;94763.06;5075128;28;20233;-70
2022/08/28 10:54:38;;;;;;;8.05;7.38;;;;;;;28.00;40.69;94764.47;5109346;28;20255;-70
2022/08/28 10:57:09;;;;;;;9.27;8.38;;;;;;;28.09;40.45;94764.47;5074850;28;20193;-69
2022/08/28 10:59:38;;;;;;;8.05;7.25;;;;;;;28.00;39.93;94753.16;5108575;28;20197;-70
2022/08/28 11:02:07;;;;;;;8.40;6.93;;;;;;;28.04;39.82;94759.44;5075659;28;20659;-69
2022/08/28 11:04:35;;;;;;;9.75;7.90;;;;;;;28.11;41.54;94756.28;5075646;28;20317;-69
2022/08/28 11:07:04;;;;;;;11.20;7.35;;;;;;;28.30;38.54;94757.00;5074846;28;20216;-71
2022/08/28 11:09:34;;;;;;;7.78;7.15;;;;;;;28.40;38.63;94757.81;5075900;28;20196;-70
2022/08/28 11:12:02;;;;;;;11.73;8.13;;;;;;;28.30;39.58;94757.78;5108819;28;20197;-69
2022/08/28 11:14:32;;;;;;;9.43;7.10;;;;;;;28.29;40.15;94755.44;5108690;28;20208;-69
2022/08/28 11:17:03;;;;;;;7.97;7.18;;;;;;;28.33;39.56;94749.59;5074120;28;20201;-69
2022/08/28 11:19:54;;;;;;;8.77;7.65;;;;;;;28.38;38.63;94746.16;5074802;28;20197;-69
2022/08/28 11:22:23;;;;;;;12.63;8.45;;;;;;;28.39;38.38;94745.66;5109204;28;20295;-69
2022/08/28 11:24:58;;;;;;;9.30;7.00;;;;;;;28.45;38.86;94748.66;5074758;28;20193;-69
2022/08/28 11:27:28;;;;;;;8.90;7.22;;;;;;;28.52;36.43;94748.31;5075771;28;20204;-69
2022/08/28 11:30:33;;;;;;;11.10;7.70;;;;;;;28.50;36.65;94745.16;5074530;28;20298;-69
2022/08/28 11:33:05;;;;;;;10.57;7.53;;;;;;;28.57;36.31;94741.97;5073578;28;20209;-69
2022/08/28 11:35:42;;;;;;;7.68;7.00;;;;;;;28.57;36.83;94741.19;5074323;28;20538;-69
2022/08/28 11:38:09;;;;;;;8.77;7.53;;;;;;;28.59;37.50;94739.44;5075142;28;20276;-69
2022/08/28 11:40:55;;;;;;;11.43;8.38;;;;;;;28.68;38.69;94736.56;5075391;28;20208;-69
2022/08/28 11:43:35;;;;;;;9.68;7.82;;;;;;;28.67;36.62;94737.06;5075079;28;20189;-69
2022/08/28 11:46:12;;;;;;;7.97;7.15;;;;;;;28.63;37.71;94733.59;5074885;28;20197;-69
2022/08/28 11:49:06;;;;;;;10.85;7.15;;;;;;;28.62;38.27;94729.22;5074320;28;20608;-69
2022/08/28 11:51:52;;;;;;;7.85;6.90;;;;;;;28.66;36.74;94726.97;5074091;28;20284;-69
2022/08/28 11:54:28;;;;;;;7.80;7.00;;;;;;;28.70;37.13;94725.53;5075270;28;20193;-70
2022/08/28 11:57:06;;;;;;;7.55;6.70;;;;;;;28.63;37.10;94728.72;5074418;28;20231;-70
2022/08/28 11:59:46;;;;;;;7.53;6.82;;;;;;;28.59;36.47;94722.44;5075579;28;20197;-70
2022/08/28 12:02:53;;;;;;;9.52;7.78;;;;;;;28.78;37.16;94723.91;5075294;28;20196;-70
2022/08/28 12:05:46;;;;;;;7.32;6.63;;;;;;;28.74;36.12;94716.84;5051234;28;20685;-71
2022/08/28 12:08:54;;;;;;;9.75;7.40;;;;;;;28.71;37.71;94714.97;5010329;28;20313;-71
2022/08/28 12:11:52;;;;;;;7.85;6.57;;;;;;;28.76;36.94;94711.50;5028381;28;20313;-70